createdAt,value
2022-10-18T00:04:08.963Z,100765.62
2022-10-18T00:09:14.026Z,100761.14
2022-10-18T00:14:17.511Z,100757.60
2022-10-18T00:19:23.761Z,100748.63
2022-10-18T00:24:29.930Z,100745.98
2022-10-18T00:29:34.484Z,100744.11
2022-10-18T00:34:41.305Z,100739.73
2022-10-18T00:39:46.354Z,100736.52
2022-10-18T00:44:51.076Z,100737.17
2022-10-18T00:49:59.091Z,100731.21
2022-10-18T00:55:04.143Z,100728.88
2022-10-18T01:00:10.955Z,100725.63
2022-10-18T01:05:17.523Z,100726.23
2022-10-18T01:10:46.424Z,100723.54
2022-10-18T01:16:21.283Z,100726.13
2022-10-18T01:21:50.767Z,100727.23
2022-10-18T01:27:26.568Z,100719.48
2022-10-18T01:32:39.446Z,100711.89
2022-10-18T01:37:47.727Z,100709.61
2022-10-18T01:42:55.393Z,100710.16
2022-10-18T01:48:04.314Z,100705.20
2022-10-18T01:53:26.333Z,100702.70
2022-10-18T01:58:49.402Z,100699.02
2022-10-18T02:03:58.213Z,100696.94
2022-10-18T02:09:27.892Z,100698.77
2022-10-18T02:14:32.517Z,100696.57
2022-10-18T02:19:45.203Z,100692.73
2022-10-18T02:24:56.513Z,100694.89
2022-10-18T02:30:01.130Z,100698.02
2022-10-18T02:35:20.979Z,100695.61
2022-10-18T02:40:25.781Z,100695.58
2022-10-18T02:45:29.410Z,100704.09
2022-10-18T02:50:36.127Z,100707.60
2022-10-18T02:55:40.376Z,100715.04
2022-10-18T03:00:45.467Z,100710.63
2022-10-18T03:05:53.401Z,100711.02
2022-10-18T03:10:58.264Z,100712.27
2022-10-18T03:16:03.028Z,100709.14
2022-10-18T03:21:08.394Z,100707.27
2022-10-18T03:26:13.494Z,100708.38
2022-10-18T03:31:17.906Z,100706.62
2022-10-18T03:36:21.232Z,100702.86
2022-10-18T03:41:25.305Z,100707.45
2022-10-18T03:46:29.110Z,100704.96
2022-10-18T03:51:33.701Z,100706.29
2022-10-18T03:56:38.581Z,100714.95
2022-10-18T04:01:43.475Z,100713.60
2022-10-18T04:06:47.925Z,100710.84
2022-10-18T04:11:52.231Z,100713.21
2022-10-18T04:16:55.870Z,100709.62
2022-10-18T04:22:00.644Z,100703.21
2022-10-18T04:27:06.679Z,100705.39
2022-10-18T04:32:11.165Z,100697.34
2022-10-18T04:37:14.816Z,100702.51
2022-10-18T04:42:18.795Z,100708.94
2022-10-18T04:47:23.836Z,100707.98
2022-10-18T04:52:28.164Z,100705.69
2022-10-18T04:57:32.545Z,100712.81
2022-10-18T05:02:37.331Z,100709.32
2022-10-18T05:07:41.013Z,100706.44
2022-10-18T05:12:45.714Z,100708.77
2022-10-18T05:17:49.487Z,100706.17
2022-10-18T05:22:53.082Z,100708.56
2022-10-18T05:27:58.001Z,100704.38
2022-10-18T05:33:02.355Z,100707.93
2022-10-18T05:38:07.051Z,100705.52
2022-10-18T05:43:12.987Z,100701.72
2022-10-18T05:48:17.993Z,100699.23
2022-10-18T05:53:36.186Z,100708.09
2022-10-18T05:58:42.348Z,100711.16
2022-10-18T06:03:46.228Z,100713.65
2022-10-18T06:08:51.276Z,100718.90
2022-10-18T06:13:56.009Z,100720.08
2022-10-18T06:19:00.497Z,100723.89
2022-10-18T06:24:03.844Z,100727.45
2022-10-18T06:29:07.683Z,100725.50
2022-10-18T06:34:11.597Z,100728.73
2022-10-18T06:39:15.740Z,100729.32
2022-10-18T06:44:23.051Z,100730.16
2022-10-18T06:49:27.952Z,100726.77
2022-10-18T06:54:31.402Z,100725.40
2022-10-18T06:59:35.913Z,100714.43
2022-10-18T07:04:40.789Z,100709.75
2022-10-18T07:09:46.829Z,100719.45
2022-10-18T07:14:52.410Z,100725.49
2022-10-18T07:19:57.118Z,100721.93
2022-10-18T07:25:01.871Z,100727.66
2022-10-18T07:30:08.471Z,100722.70
2022-10-18T07:40:21.003Z,100711.95
2022-10-18T07:45:25.583Z,100710.11
2022-10-18T07:50:30.549Z,100711.54
2022-10-18T07:55:34.027Z,100700.61
2022-10-18T08:00:37.902Z,100699.14
2022-10-18T08:05:42.392Z,100695.10
2022-10-18T08:10:48.906Z,100696.81
2022-10-18T08:16:00.180Z,100700.92
2022-10-18T08:21:06.338Z,100701.59
2022-10-18T08:26:15.433Z,100697.52
2022-10-18T08:31:20.473Z,100695.25
2022-10-18T08:36:25.119Z,100694.11
2022-10-18T08:41:38.547Z,100685.62
2022-10-18T08:46:47.815Z,100690.15
2022-10-18T08:51:52.889Z,100688.25
2022-10-18T08:57:02.332Z,100680.94
2022-10-18T09:02:12.938Z,100680.39
2022-10-18T09:08:01.560Z,100677.15
2022-10-18T09:13:47.860Z,100673.64
2022-10-18T09:19:09.202Z,100663.86
2022-10-18T09:24:16.455Z,100661.34
2022-10-18T09:29:48.611Z,100655.85
2022-10-18T09:34:57.083Z,100653.45
2022-10-18T09:40:18.766Z,100649.61
2022-10-18T09:45:34.856Z,100641.49
2022-10-18T09:50:46.308Z,100631.09
2022-10-18T09:56:02.255Z,100627.96
2022-10-18T10:01:08.409Z,100620.58
2022-10-18T10:06:12.618Z,100621.60
2022-10-18T10:11:35.180Z,100620.07
2022-10-18T10:16:52.059Z,100615.84
2022-10-18T10:22:00.620Z,100601.48
2022-10-18T10:27:07.276Z,100597.17
2022-10-18T10:32:14.115Z,100591.52
2022-10-18T10:37:23.425Z,100586.37
2022-10-18T10:42:27.103Z,100582.02
2022-10-18T10:47:34.543Z,100578.31
2022-10-18T10:52:40.658Z,100571.85
2022-10-18T10:57:48.274Z,100556.36
2022-10-18T11:03:27.879Z,100551.92
2022-10-18T11:08:39.818Z,100537.98
2022-10-18T11:13:57.018Z,100533.23
2022-10-18T11:19:39.674Z,100520.92
2022-10-18T11:24:44.206Z,100511.84
2022-10-18T11:30:29.504Z,100503.02
2022-10-18T11:36:03.575Z,100485.89
2022-10-18T11:41:22.925Z,100477.05
2022-10-18T11:46:47.113Z,100470.59
2022-10-18T11:52:08.486Z,100460.69
2022-10-18T11:57:31.866Z,100458.69
2022-10-18T12:02:44.312Z,100445.14
2022-10-18T12:07:52.241Z,100441.79
2022-10-18T12:13:02.405Z,100444.80
2022-10-18T12:18:15.400Z,100440.78
2022-10-18T12:24:01.236Z,100432.23
2022-10-18T12:29:33.844Z,100422.04
2022-10-18T12:34:45.307Z,100409.01
2022-10-18T12:40:32.304Z,100407.59
2022-10-18T12:45:50.185Z,100396.48
2022-10-18T12:51:18.972Z,100377.36
2022-10-18T12:56:28.453Z,100373.95
2022-10-18T13:01:52.509Z,100360.52
2022-10-18T13:07:06.105Z,100355.89
2022-10-18T13:12:10.988Z,100355.33
2022-10-18T13:17:15.493Z,100356.59
2022-10-18T13:23:06.164Z,100349.55
2022-10-18T13:28:17.079Z,100340.48
2022-10-18T13:33:36.589Z,100345.17
2022-10-18T13:38:59.393Z,100341.28
2022-10-18T13:44:04.003Z,100326.49
2022-10-18T13:49:44.919Z,100305.05
2022-10-18T13:55:52.103Z,100286.77
2022-10-18T14:01:14.404Z,100281.14
2022-10-18T14:06:25.673Z,100280.11
2022-10-18T14:11:49.782Z,100274.19
2022-10-18T14:16:58.777Z,100269.30
2022-10-18T14:22:19.201Z,100272.11
2022-10-18T14:27:28.220Z,100278.23
2022-10-18T14:32:32.898Z,100271.25
2022-10-18T14:37:37.379Z,100271.17
2022-10-18T14:42:48.761Z,100273.19
2022-10-18T14:47:52.456Z,100280.70
2022-10-18T14:52:56.143Z,100288.64
2022-10-18T14:57:59.933Z,100302.17
2022-10-18T15:03:11.114Z,100316.95
2022-10-18T15:08:14.476Z,100331.16
2022-10-18T15:13:18.181Z,100337.51
2022-10-18T15:18:25.150Z,100349.48
2022-10-18T15:23:34.426Z,100374.33
2022-10-18T15:28:51.627Z,100374.28
2022-10-18T15:34:15.702Z,100378.73
2022-10-18T15:39:27.133Z,100384.95
2022-10-18T15:44:35.366Z,100401.34
2022-10-18T15:49:52.204Z,100395.86
2022-10-18T15:54:58.301Z,100400.23
2022-10-18T16:00:08.557Z,100418.52
2022-10-18T16:05:18.436Z,100411.01
2022-10-18T16:10:24.436Z,100414.16
2022-10-18T16:15:28.441Z,100426.77
2022-10-18T16:20:31.793Z,100441.78
2022-10-18T16:25:39.026Z,100456.93
2022-10-18T16:30:49.011Z,100462.99
2022-10-18T16:35:54.931Z,100470.96
2022-10-18T16:40:58.871Z,100472.53
2022-10-18T16:46:04.021Z,100478.27
2022-10-18T16:51:07.965Z,100484.08
2022-10-18T16:56:33.528Z,100487.44
2022-10-18T17:01:39.670Z,100476.65
2022-10-18T17:06:47.050Z,100468.36
2022-10-18T17:11:53.137Z,100465.52
2022-10-18T17:16:57.519Z,100480.73
2022-10-18T17:22:02.751Z,100480.63
2022-10-18T17:27:07.357Z,100482.58
2022-10-18T17:32:11.614Z,100480.63
2022-10-18T17:37:15.598Z,100482.88
2022-10-18T17:42:22.381Z,100485.33
2022-10-18T17:47:29.901Z,100482.41
2022-10-18T17:52:46.162Z,100490.37
2022-10-18T17:57:56.092Z,100505.71
2022-10-18T18:03:01.446Z,100513.20
2022-10-18T18:08:05.788Z,100522.78
2022-10-18T18:13:10.105Z,100514.89
2022-10-18T18:18:14.524Z,100514.55
2022-10-18T18:23:19.322Z,100529.04
2022-10-18T18:28:23.458Z,100532.10
2022-10-18T18:33:28.002Z,100527.89
2022-10-18T18:38:36.045Z,100516.73
2022-10-18T18:43:43.036Z,100518.76
2022-10-18T18:48:47.146Z,100520.65
2022-10-18T18:53:54.171Z,100526.83
2022-10-18T18:58:59.715Z,100529.58
2022-10-18T19:04:10.534Z,100526.31
2022-10-18T19:09:20.114Z,100522.80
2022-10-18T19:14:25.954Z,100515.05
2022-10-18T19:19:31.131Z,100508.93
2022-10-18T19:24:35.021Z,100516.34
2022-10-18T19:29:39.918Z,100516.91
2022-10-18T19:34:46.452Z,100523.00
2022-10-18T19:39:50.547Z,100521.99
2022-10-18T19:44:54.867Z,100521.11
2022-10-18T19:50:00.013Z,100522.12
2022-10-18T19:55:03.909Z,100522.08
2022-10-18T20:00:09.863Z,100519.39
2022-10-18T20:05:19.255Z,100510.66
2022-10-18T20:10:23.115Z,100509.14
2022-10-18T20:15:28.049Z,100504.83
2022-10-18T20:20:35.406Z,100505.88
2022-10-18T20:25:39.313Z,100513.25
2022-10-18T20:30:42.782Z,100523.56
2022-10-18T20:35:50.085Z,100522.23
2022-10-18T20:40:55.471Z,100519.65
2022-10-18T20:46:00.084Z,100529.17
2022-10-18T20:51:13.273Z,100533.52
2022-10-18T20:56:23.374Z,100538.11
2022-10-18T21:01:30.379Z,100536.44
2022-10-18T21:06:42.290Z,100537.79
2022-10-18T21:11:51.414Z,100535.09
2022-10-18T21:16:55.704Z,100532.58
2022-10-18T21:22:03.652Z,100529.06
2022-10-18T21:27:07.721Z,100526.36
2022-10-18T21:32:15.110Z,100524.98
2022-10-18T21:37:20.415Z,100529.50
2022-10-18T21:42:26.765Z,100522.77
2022-10-18T21:47:30.774Z,100522.90
2022-10-18T21:52:35.465Z,100526.52
2022-10-18T21:57:40.476Z,100532.31
2022-10-18T22:02:46.039Z,100531.06
2022-10-18T22:07:51.082Z,100526.05
2022-10-18T22:12:55.573Z,100519.70
2022-10-18T22:18:00.085Z,100511.66
2022-10-18T22:23:04.561Z,100510.91
2022-10-18T22:28:07.874Z,100510.38
2022-10-18T22:33:11.982Z,100512.88
2022-10-18T22:38:16.290Z,100515.77
2022-10-18T22:43:20.908Z,100519.59
2022-10-18T22:48:24.447Z,100513.60
2022-10-18T22:53:28.093Z,100499.75
2022-10-18T22:58:31.510Z,100496.08
2022-10-18T23:03:35.945Z,100490.23
2022-10-18T23:08:40.858Z,100490.31
2022-10-18T23:13:45.750Z,100494.00
2022-10-18T23:18:54.477Z,100495.80
2022-10-18T23:23:59.090Z,100497.92
2022-10-18T23:29:04.330Z,100496.45
2022-10-18T23:34:10.682Z,100498.04
2022-10-18T23:39:15.351Z,100494.73
2022-10-18T23:44:19.608Z,100491.54
2022-10-18T23:49:24.547Z,100492.45
2022-10-18T23:54:29.334Z,100492.35
2022-10-18T23:59:33.493Z,100494.64
